sensor_id;sensor_type;location;lat;lon;timestamp;temperature;humidity
36372;DHT22;22398;51.346;12.372;2023-07-16T00:03:43;21.50;99.90
36372;DHT22;22398;51.346;12.372;2023-07-16T00:08:46;21.70;99.90
36372;DHT22;22398;51.346;12.372;2023-07-16T00:13:51;21.70;99.90
36372;DHT22;22398;51.346;12.372;2023-07-16T00:18:54;21.70;99.90
36372;DHT22;22398;51.346;12.372;2023-07-16T00:23:57;21.60;99.90
36372;DHT22;22398;51.346;12.372;2023-07-16T00:29:01;20.90;99.90
36372;DHT22;22398;51.346;12.372;2023-07-16T00:34:04;20.50;99.90
36372;DHT22;22398;51.346;12.372;2023-07-16T00:39:07;20.30;99.90
36372;DHT22;22398;51.346;12.372;2023-07-16T00:44:13;20.20;99.90
36372;DHT22;22398;51.346;12.372;2023-07-16T00:49:16;20.00;99.90
36372;DHT22;22398;51.346;12.372;2023-07-16T00:54:20;20.00;99.90
36372;DHT22;22398;51.346;12.372;2023-07-16T00:59:24;20.00;99.90
36372;DHT22;22398;51.346;12.372;2023-07-16T01:04:28;20.00;99.90
36372;DHT22;22398;51.346;12.372;2023-07-16T01:09:31;20.10;99.90
36372;DHT22;22398;51.346;12.372;2023-07-16T01:14:36;20.10;99.90
36372;DHT22;22398;51.346;12.372;2023-07-16T01:19:41;20.10;99.90
36372;DHT22;22398;51.346;12.372;2023-07-16T01:30:08;20.10;99.90
36372;DHT22;22398;51.346;12.372;2023-07-16T01:35:11;20.10;99.90
36372;DHT22;22398;51.346;12.372;2023-07-16T01:40:15;20.10;99.90
36372;DHT22;22398;51.346;12.372;2023-07-16T01:45:20;20.10;99.90
36372;DHT22;22398;51.346;12.372;2023-07-16T01:50:23;20.10;99.90
36372;DHT22;22398;51.346;12.372;2023-07-16T01:55:26;20.10;99.90
36372;DHT22;22398;51.346;12.372;2023-07-16T02:00:32;20.20;99.90
36372;DHT22;22398;51.346;12.372;2023-07-16T02:05:35;20.20;99.90
36372;DHT22;22398;51.346;12.372;2023-07-16T02:10:38;20.20;99.90
36372;DHT22;22398;51.346;12.372;2023-07-16T02:15:43;20.30;99.90
36372;DHT22;22398;51.346;12.372;2023-07-16T02:20:46;20.40;99.90
36372;DHT22;22398;51.346;12.372;2023-07-16T02:25:50;20.40;99.90
36372;DHT22;22398;51.346;12.372;2023-07-16T02:30:55;20.50;99.90
36372;DHT22;22398;51.346;12.372;2023-07-16T02:35:58;20.60;99.90
36372;DHT22;22398;51.346;12.372;2023-07-16T02:41:02;20.60;99.90
36372;DHT22;22398;51.346;12.372;2023-07-16T02:46:08;20.70;99.90
36372;DHT22;22398;51.346;12.372;2023-07-16T02:51:11;20.80;99.90
36372;DHT22;22398;51.346;12.372;2023-07-16T02:56:15;20.80;99.90
36372;DHT22;22398;51.346;12.372;2023-07-16T03:01:20;20.90;99.90
36372;DHT22;22398;51.346;12.372;2023-07-16T03:06:24;20.90;99.90
36372;DHT22;22398;51.346;12.372;2023-07-16T03:11:27;20.90;99.90
36372;DHT22;22398;51.346;12.372;2023-07-16T03:16:32;20.90;99.90
36372;DHT22;22398;51.346;12.372;2023-07-16T03:21:35;21.00;99.90
36372;DHT22;22398;51.346;12.372;2023-07-16T03:26:38;20.90;99.90
36372;DHT22;22398;51.346;12.372;2023-07-16T03:31:43;21.00;99.90
36372;DHT22;22398;51.346;12.372;2023-07-16T03:36:49;20.90;99.90
36372;DHT22;22398;51.346;12.372;2023-07-16T03:41:53;20.80;99.90
36372;DHT22;22398;51.346;12.372;2023-07-16T03:46:58;20.80;99.90
36372;DHT22;22398;51.346;12.372;2023-07-16T03:52:02;20.80;99.90
36372;DHT22;22398;51.346;12.372;2023-07-16T03:57:06;20.80;99.90
36372;DHT22;22398;51.346;12.372;2023-07-16T04:02:11;20.90;99.90
36372;DHT22;22398;51.346;12.372;2023-07-16T04:07:15;20.90;99.90
36372;DHT22;22398;51.346;12.372;2023-07-16T04:12:18;20.90;99.90
36372;DHT22;22398;51.346;12.372;2023-07-16T04:17:23;20.90;99.90
36372;DHT22;22398;51.346;12.372;2023-07-16T04:22:27;20.80;99.90
36372;DHT22;22398;51.346;12.372;2023-07-16T04:27:30;21.00;99.90
36372;DHT22;22398;51.346;12.372;2023-07-16T04:32:35;21.20;99.90
36372;DHT22;22398;51.346;12.372;2023-07-16T04:37:39;17.50;99.90
36372;DHT22;22398;51.346;12.372;2023-07-16T04:42:42;21.50;99.90
36372;DHT22;22398;51.346;12.372;2023-07-16T04:47:47;21.60;99.90
36372;DHT22;22398;51.346;12.372;2023-07-16T04:52:50;21.80;99.90
36372;DHT22;22398;51.346;12.372;2023-07-16T04:57:54;22.10;99.90
36372;DHT22;22398;51.346;12.372;2023-07-16T05:03:00;22.30;99.90
36372;DHT22;22398;51.346;12.372;2023-07-16T05:08:03;22.30;99.90
36372;DHT22;22398;51.346;12.372;2023-07-16T05:13:06;22.60;99.90
36372;DHT22;22398;51.346;12.372;2023-07-16T05:18:12;23.50;99.90
36372;DHT22;22398;51.346;12.372;2023-07-16T05:23:15;25.40;99.90
36372;DHT22;22398;51.346;12.372;2023-07-16T05:28:18;25.00;99.90
36372;DHT22;22398;51.346;12.372;2023-07-16T05:33:23;24.40;99.90
36372;DHT22;22398;51.346;12.372;2023-07-16T05:38:26;24.00;99.90
36372;DHT22;22398;51.346;12.372;2023-07-16T05:43:29;24.10;99.90
36372;DHT22;22398;51.346;12.372;2023-07-16T05:48:34;24.10;99.90
36372;DHT22;22398;51.346;12.372;2023-07-16T05:53:37;23.80;99.90
36372;DHT22;22398;51.346;12.372;2023-07-16T05:58:41;23.50;99.90
36372;DHT22;22398;51.346;12.372;2023-07-16T06:03:45;23.30;99.90
36372;DHT22;22398;51.346;12.372;2023-07-16T06:08:48;23.20;99.90
36372;DHT22;22398;51.346;12.372;2023-07-16T06:13:53;23.10;99.90
36372;DHT22;22398;51.346;12.372;2023-07-16T06:18:57;23.10;99.90
36372;DHT22;22398;51.346;12.372;2023-07-16T06:24:01;23.00;99.90
36372;DHT22;22398;51.346;12.372;2023-07-16T06:29:04;23.00;99.90
36372;DHT22;22398;51.346;12.372;2023-07-16T06:34:08;23.00;99.20
36372;DHT22;22398;51.346;12.372;2023-07-16T06:39:12;23.20;98.50
36372;DHT22;22398;51.346;12.372;2023-07-16T06:44:15;23.00;97.40
36372;DHT22;22398;51.346;12.372;2023-07-16T06:49:21;23.00;97.00
36372;DHT22;22398;51.346;12.372;2023-07-16T06:54:24;23.20;95.70
36372;DHT22;22398;51.346;12.372;2023-07-16T06:59:28;23.00;94.00
36372;DHT22;22398;51.346;12.372;2023-07-16T07:04:33;23.00;93.90
36372;DHT22;22398;51.346;12.372;2023-07-16T07:09:36;23.30;92.90
36372;DHT22;22398;51.346;12.372;2023-07-16T07:14:39;23.20;92.90
36372;DHT22;22398;51.346;12.372;2023-07-16T07:19:44;23.60;91.60
36372;DHT22;22398;51.346;12.372;2023-07-16T07:24:49;23.60;91.70
36372;DHT22;22398;51.346;12.372;2023-07-16T07:29:52;23.50;89.20
36372;DHT22;22398;51.346;12.372;2023-07-16T07:34:58;23.50;89.60
36372;DHT22;22398;51.346;12.372;2023-07-16T07:40:05;23.60;87.30
36372;DHT22;22398;51.346;12.372;2023-07-16T07:45:09;23.60;87.60
36372;DHT22;22398;51.346;12.372;2023-07-16T07:50:14;24.10;85.20
36372;DHT22;22398;51.346;12.372;2023-07-16T07:55:18;24.10;85.30
36372;DHT22;22398;51.346;12.372;2023-07-16T08:00:21;24.20;82.00
36372;DHT22;22398;51.346;12.372;2023-07-16T08:05:26;24.30;82.20
36372;DHT22;22398;51.346;12.372;2023-07-16T08:10:29;24.60;78.10
36372;DHT22;22398;51.346;12.372;2023-07-16T08:15:32;24.60;78.10
36372;DHT22;22398;51.346;12.372;2023-07-16T08:20:37;24.80;74.50
36372;DHT22;22398;51.346;12.372;2023-07-16T08:25:42;24.80;74.70
36372;DHT22;22398;51.346;12.372;2023-07-16T08:30:46;25.00;71.40
36372;DHT22;22398;51.346;12.372;2023-07-16T08:35:51;24.90;70.60
36372;DHT22;22398;51.346;12.372;2023-07-16T08:40:54;24.60;68.10
36372;DHT22;22398;51.346;12.372;2023-07-16T08:45:58;24.80;68.40
36372;DHT22;22398;51.346;12.372;2023-07-16T08:51:05;24.80;66.90
36372;DHT22;22398;51.346;12.372;2023-07-16T08:56:09;24.70;66.70
36372;DHT22;22398;51.346;12.372;2023-07-16T09:01:13;25.30;66.50
36372;DHT22;22398;51.346;12.372;2023-07-16T09:06:23;25.50;67.00
36372;DHT22;22398;51.346;12.372;2023-07-16T09:11:27;25.90;65.50
36372;DHT22;22398;51.346;12.372;2023-07-16T09:16:32;26.10;63.20
36372;DHT22;22398;51.346;12.372;2023-07-16T09:21:37;26.20;61.00
36372;DHT22;22398;51.346;12.372;2023-07-16T09:26:47;26.00;59.80
36372;DHT22;22398;51.346;12.372;2023-07-16T09:31:54;26.10;59.60
36372;DHT22;22398;51.346;12.372;2023-07-16T09:36:59;26.00;58.70
36372;DHT22;22398;51.346;12.372;2023-07-16T09:42:03;25.90;58.50
36372;DHT22;22398;51.346;12.372;2023-07-16T09:47:06;26.10;58.20
36372;DHT22;22398;51.346;12.372;2023-07-16T09:52:10;26.10;56.60
36372;DHT22;22398;51.346;12.372;2023-07-16T09:57:15;26.00;56.00
36372;DHT22;22398;51.346;12.372;2023-07-16T10:02:19;25.90;55.60
36372;DHT22;22398;51.346;12.372;2023-07-16T10:07:24;26.10;55.00
36372;DHT22;22398;51.346;12.372;2023-07-16T10:12:28;25.90;54.00
36372;DHT22;22398;51.346;12.372;2023-07-16T10:17:31;26.00;54.40
36372;DHT22;22398;51.346;12.372;2023-07-16T10:22:37;26.00;54.10
36372;DHT22;22398;51.346;12.372;2023-07-16T10:27:40;26.10;54.00
36372;DHT22;22398;51.346;12.372;2023-07-16T10:32:43;26.40;54.20
36372;DHT22;22398;51.346;12.372;2023-07-16T10:37:48;26.80;53.60
36372;DHT22;22398;51.346;12.372;2023-07-16T10:42:52;26.60;52.90
36372;DHT22;22398;51.346;12.372;2023-07-16T10:47:55;26.70;52.70
36372;DHT22;22398;51.346;12.372;2023-07-16T10:53:00;27.00;52.90
36372;DHT22;22398;51.346;12.372;2023-07-16T10:58:03;27.20;52.80
36372;DHT22;22398;51.346;12.372;2023-07-16T11:03:07;26.90;51.90
36372;DHT22;22398;51.346;12.372;2023-07-16T11:08:20;26.80;52.10
36372;DHT22;22398;51.346;12.372;2023-07-16T11:13:26;27.00;52.60
36372;DHT22;22398;51.346;12.372;2023-07-16T11:18:30;27.40;52.00
36372;DHT22;22398;51.346;12.372;2023-07-16T11:23:35;27.50;51.10
36372;DHT22;22398;51.346;12.372;2023-07-16T11:28:39;27.40;51.00
36372;DHT22;22398;51.346;12.372;2023-07-16T11:33:43;27.80;51.00
36372;DHT22;22398;51.346;12.372;2023-07-16T11:38:49;27.80;50.50
36372;DHT22;22398;51.346;12.372;2023-07-16T11:43:53;27.50;50.20
36372;DHT22;22398;51.346;12.372;2023-07-16T11:48:56;27.70;50.30
36372;DHT22;22398;51.346;12.372;2023-07-16T11:54:00;27.80;49.70
36372;DHT22;22398;51.346;12.372;2023-07-16T11:59:03;28.10;49.30
36372;DHT22;22398;51.346;12.372;2023-07-16T12:04:06;28.00;48.90
36372;DHT22;22398;51.346;12.372;2023-07-16T12:09:11;28.20;48.90
36372;DHT22;22398;51.346;12.372;2023-07-16T12:14:14;28.40;48.50
36372;DHT22;22398;51.346;12.372;2023-07-16T12:19:17;28.40;48.20
36372;DHT22;22398;51.346;12.372;2023-07-16T12:24:22;28.40;48.20
36372;DHT22;22398;51.346;12.372;2023-07-16T12:29:25;28.30;47.70
36372;DHT22;22398;51.346;12.372;2023-07-16T12:34:29;28.40;47.70
36372;DHT22;22398;51.346;12.372;2023-07-16T12:39:33;28.60;47.40
36372;DHT22;22398;51.346;12.372;2023-07-16T12:44:37;28.50;46.60
36372;DHT22;22398;51.346;12.372;2023-07-16T12:49:40;28.30;46.30
36372;DHT22;22398;51.346;12.372;2023-07-16T12:54:45;28.10;45.80
36372;DHT22;22398;51.346;12.372;2023-07-16T12:59:48;28.00;45.80
36372;DHT22;22398;51.346;12.372;2023-07-16T13:04:51;27.90;45.50
36372;DHT22;22398;51.346;12.372;2023-07-16T13:09:56;28.10;45.80
36372;DHT22;22398;51.346;12.372;2023-07-16T13:15:19;28.10;45.60
36372;DHT22;22398;51.346;12.372;2023-07-16T13:20:22;28.10;45.50
36372;DHT22;22398;51.346;12.372;2023-07-16T13:25:26;28.40;45.80
36372;DHT22;22398;51.346;12.372;2023-07-16T13:30:31;28.30;45.10
36372;DHT22;22398;51.346;12.372;2023-07-16T13:35:34;28.40;45.20
36372;DHT22;22398;51.346;12.372;2023-07-16T13:40:39;28.40;45.40
36372;DHT22;22398;51.346;12.372;2023-07-16T13:45:42;28.50;45.30
36372;DHT22;22398;51.346;12.372;2023-07-16T13:50:45;28.30;44.80
36372;DHT22;22398;51.346;12.372;2023-07-16T13:55:50;28.20;45.50
36372;DHT22;22398;51.346;12.372;2023-07-16T14:00:55;27.90;44.90
36372;DHT22;22398;51.346;12.372;2023-07-16T14:05:58;27.60;45.10
36372;DHT22;22398;51.346;12.372;2023-07-16T14:11:02;27.90;45.40
36372;DHT22;22398;51.346;12.372;2023-07-16T14:16:06;28.30;45.40
36372;DHT22;22398;51.346;12.372;2023-07-16T14:21:09;28.20;44.90
36372;DHT22;22398;51.346;12.372;2023-07-16T14:26:13;28.10;45.00
36372;DHT22;22398;51.346;12.372;2023-07-16T14:31:17;28.10;44.70
36372;DHT22;22398;51.346;12.372;2023-07-16T14:36:20;28.10;44.50
36372;DHT22;22398;51.346;12.372;2023-07-16T14:41:25;28.00;44.50
36372;DHT22;22398;51.346;12.372;2023-07-16T14:46:28;28.00;44.90
36372;DHT22;22398;51.346;12.372;2023-07-16T14:51:31;28.00;44.60
36372;DHT22;22398;51.346;12.372;2023-07-16T14:56:42;27.90;44.10
36372;DHT22;22398;51.346;12.372;2023-07-16T15:01:45;27.90;44.10
36372;DHT22;22398;51.346;12.372;2023-07-16T15:06:48;28.00;44.00
36372;DHT22;22398;51.346;12.372;2023-07-16T15:11:54;28.00;43.70
36372;DHT22;22398;51.346;12.372;2023-07-16T15:16:57;28.00;43.50
36372;DHT22;22398;51.346;12.372;2023-07-16T15:22:02;28.10;43.70
36372;DHT22;22398;51.346;12.372;2023-07-16T15:27:08;28.20;43.30
36372;DHT22;22398;51.346;12.372;2023-07-16T15:32:13;28.10;43.50
36372;DHT22;22398;51.346;12.372;2023-07-16T15:37:16;28.00;43.60
36372;DHT22;22398;51.346;12.372;2023-07-16T15:42:20;28.10;43.60
36372;DHT22;22398;51.346;12.372;2023-07-16T15:47:25;28.30;43.60
36372;DHT22;22398;51.346;12.372;2023-07-16T15:52:28;28.50;43.50
36372;DHT22;22398;51.346;12.372;2023-07-16T15:57:36;28.60;43.50
36372;DHT22;22398;51.346;12.372;2023-07-16T16:02:39;28.80;42.90
36372;DHT22;22398;51.346;12.372;2023-07-16T16:07:43;29.10;42.70
36372;DHT22;22398;51.346;12.372;2023-07-16T16:12:48;29.10;42.00
36372;DHT22;22398;51.346;12.372;2023-07-16T16:17:52;29.10;41.70
36372;DHT22;22398;51.346;12.372;2023-07-16T16:22:55;29.20;41.70
36372;DHT22;22398;51.346;12.372;2023-07-16T16:28:00;29.40;41.20
36372;DHT22;22398;51.346;12.372;2023-07-16T16:33:03;29.60;41.10
36372;DHT22;22398;51.346;12.372;2023-07-16T16:38:07;30.20;41.10
36372;DHT22;22398;51.346;12.372;2023-07-16T16:43:12;30.60;40.30
36372;DHT22;22398;51.346;12.372;2023-07-16T16:48:15;30.80;40.10
36372;DHT22;22398;51.346;12.372;2023-07-16T16:53:19;31.40;40.00
36372;DHT22;22398;51.346;12.372;2023-07-16T16:58:23;32.20;40.20
36372;DHT22;22398;51.346;12.372;2023-07-16T17:03:26;32.00;39.40
36372;DHT22;22398;51.346;12.372;2023-07-16T17:08:29;32.00;38.90
36372;DHT22;22398;51.346;12.372;2023-07-16T17:13:34;32.20;39.10
36372;DHT22;22398;51.346;12.372;2023-07-16T17:18:37;32.20;38.90
36372;DHT22;22398;51.346;12.372;2023-07-16T17:23:44;32.20;39.10
36372;DHT22;22398;51.346;12.372;2023-07-16T17:28:53;32.20;38.70
36372;DHT22;22398;51.346;12.372;2023-07-16T17:33:56;31.90;38.20
36372;DHT22;22398;51.346;12.372;2023-07-16T17:38:59;31.60;38.30
36372;DHT22;22398;51.346;12.372;2023-07-16T17:44:03;31.20;38.00
36372;DHT22;22398;51.346;12.372;2023-07-16T17:49:06;30.50;38.30
36372;DHT22;22398;51.346;12.372;2023-07-16T17:54:10;30.20;38.60
36372;DHT22;22398;51.346;12.372;2023-07-16T17:59:15;29.90;39.10
36372;DHT22;22398;51.346;12.372;2023-07-16T18:04:18;29.90;39.30
36372;DHT22;22398;51.346;12.372;2023-07-16T18:09:22;29.90;39.30
36372;DHT22;22398;51.346;12.372;2023-07-16T18:14:27;29.80;39.50
36372;DHT22;22398;51.346;12.372;2023-07-16T18:19:32;29.40;39.80
36372;DHT22;22398;51.346;12.372;2023-07-16T18:24:36;29.10;40.20
36372;DHT22;22398;51.346;12.372;2023-07-16T18:29:41;28.80;40.10
36372;DHT22;22398;51.346;12.372;2023-07-16T18:34:44;28.60;40.70
36372;DHT22;22398;51.346;12.372;2023-07-16T18:39:47;28.40;41.00
36372;DHT22;22398;51.346;12.372;2023-07-16T18:44:51;27.80;41.20
36372;DHT22;22398;51.346;12.372;2023-07-16T18:49:58;27.10;41.80
36372;DHT22;22398;51.346;12.372;2023-07-16T18:55:01;26.50;42.40
36372;DHT22;22398;51.346;12.372;2023-07-16T19:00:07;25.90;42.60
36372;DHT22;22398;51.346;12.372;2023-07-16T19:05:11;25.50;43.70
36372;DHT22;22398;51.346;12.372;2023-07-16T19:10:15;25.10;44.30
36372;DHT22;22398;51.346;12.372;2023-07-16T19:15:19;24.70;45.00
36372;DHT22;22398;51.346;12.372;2023-07-16T19:20:22;24.40;45.60
36372;DHT22;22398;51.346;12.372;2023-07-16T19:25:25;24.10;46.10
36372;DHT22;22398;51.346;12.372;2023-07-16T19:30:30;23.90;46.70
36372;DHT22;22398;51.346;12.372;2023-07-16T19:35:33;23.70;47.20
36372;DHT22;22398;51.346;12.372;2023-07-16T19:40:36;23.50;47.60
36372;DHT22;22398;51.346;12.372;2023-07-16T19:45:41;23.30;48.10
36372;DHT22;22398;51.346;12.372;2023-07-16T19:50:44;23.10;48.60
36372;DHT22;22398;51.346;12.372;2023-07-16T19:55:49;22.90;49.10
36372;DHT22;22398;51.346;12.372;2023-07-16T20:00:54;22.70;49.70
36372;DHT22;22398;51.346;12.372;2023-07-16T20:05:57;22.50;50.50
36372;DHT22;22398;51.346;12.372;2023-07-16T20:11:00;22.40;50.90
36372;DHT22;22398;51.346;12.372;2023-07-16T20:16:04;22.20;51.30
36372;DHT22;22398;51.346;12.372;2023-07-16T20:21:08;22.10;51.70
36372;DHT22;22398;51.346;12.372;2023-07-16T20:26:12;21.90;52.30
36372;DHT22;22398;51.346;12.372;2023-07-16T20:31:17;21.80;52.90
36372;DHT22;22398;51.346;12.372;2023-07-16T20:36:20;21.80;53.50
36372;DHT22;22398;51.346;12.372;2023-07-16T20:41:23;21.60;53.70
36372;DHT22;22398;51.346;12.372;2023-07-16T20:46:29;21.50;54.00
36372;DHT22;22398;51.346;12.372;2023-07-16T20:51:32;21.30;53.70
36372;DHT22;22398;51.346;12.372;2023-07-16T20:56:35;21.20;54.60
36372;DHT22;22398;51.346;12.372;2023-07-16T21:01:40;21.20;55.20
36372;DHT22;22398;51.346;12.372;2023-07-16T21:06:43;21.10;55.30
36372;DHT22;22398;51.346;12.372;2023-07-16T21:11:47;21.00;55.70
36372;DHT22;22398;51.346;12.372;2023-07-16T21:16:51;20.90;55.80
36372;DHT22;22398;51.346;12.372;2023-07-16T21:21:54;20.80;55.90
36372;DHT22;22398;51.346;12.372;2023-07-16T21:26:57;20.70;56.00
36372;DHT22;22398;51.346;12.372;2023-07-16T21:32:02;20.60;56.50
36372;DHT22;22398;51.346;12.372;2023-07-16T21:37:06;20.60;56.90
36372;DHT22;22398;51.346;12.372;2023-07-16T21:42:09;20.60;57.30
36372;DHT22;22398;51.346;12.372;2023-07-16T21:47:13;20.50;57.60
36372;DHT22;22398;51.346;12.372;2023-07-16T21:52:17;20.50;58.10
36372;DHT22;22398;51.346;12.372;2023-07-16T21:57:20;20.40;58.40
36372;DHT22;22398;51.346;12.372;2023-07-16T22:02:25;20.30;58.40
36372;DHT22;22398;51.346;12.372;2023-07-16T22:07:30;20.20;58.40
36372;DHT22;22398;51.346;12.372;2023-07-16T22:12:34;20.20;58.70
36372;DHT22;22398;51.346;12.372;2023-07-16T22:17:38;20.10;59.10
36372;DHT22;22398;51.346;12.372;2023-07-16T22:22:42;20.00;59.50
36372;DHT22;22398;51.346;12.372;2023-07-16T22:27:46;20.00;59.60
36372;DHT22;22398;51.346;12.372;2023-07-16T22:32:50;20.00;59.60
36372;DHT22;22398;51.346;12.372;2023-07-16T22:37:54;19.90;59.50
36372;DHT22;22398;51.346;12.372;2023-07-16T22:42:57;19.90;59.70
36372;DHT22;22398;51.346;12.372;2023-07-16T22:48:02;19.90;60.60
36372;DHT22;22398;51.346;12.372;2023-07-16T22:53:05;19.80;59.90
36372;DHT22;22398;51.346;12.372;2023-07-16T22:58:08;19.80;59.90
36372;DHT22;22398;51.346;12.372;2023-07-16T23:03:13;19.70;60.10
36372;DHT22;22398;51.346;12.372;2023-07-16T23:08:16;19.70;60.30
36372;DHT22;22398;51.346;12.372;2023-07-16T23:13:19;19.70;60.50
36372;DHT22;22398;51.346;12.372;2023-07-16T23:18:24;19.70;60.20
36372;DHT22;22398;51.346;12.372;2023-07-16T23:23:27;19.60;60.60
36372;DHT22;22398;51.346;12.372;2023-07-16T23:28:30;19.60;60.40
36372;DHT22;22398;51.346;12.372;2023-07-16T23:33:35;19.50;60.90
36372;DHT22;22398;51.346;12.372;2023-07-16T23:38:38;19.50;61.50
36372;DHT22;22398;51.346;12.372;2023-07-16T23:43:42;19.50;61.40
36372;DHT22;22398;51.346;12.372;2023-07-16T23:48:46;19.50;61.60
36372;DHT22;22398;51.346;12.372;2023-07-16T23:53:50;19.60;61.90
36372;DHT22;22398;51.346;12.372;2023-07-16T23:58:53;19.60;61.90
